sensor_id;sensor_type;location;lat;lon;timestamp;pressure;altitude;pressure_sealevel;temperature;humidity
64551;BME280;50945;44.472;-123.352;2022-09-24T00:01:34;100674.88;;;23.82;43.46
64551;BME280;50945;44.472;-123.352;2022-09-24T00:04:04;100674.22;;;23.75;45.76
64551;BME280;50945;44.472;-123.352;2022-09-24T00:06:40;100680.81;;;23.64;44.98
64551;BME280;50945;44.472;-123.352;2022-09-24T00:09:08;100668.16;;;23.51;45.82
64551;BME280;50945;44.472;-123.352;2022-09-24T00:11:35;100678.09;;;23.42;46.03
64551;BME280;50945;44.472;-123.352;2022-09-24T00:14:01;100669.63;;;23.31;45.82
64551;BME280;50945;44.472;-123.352;2022-09-24T00:16:29;100665.38;;;23.24;45.70
64551;BME280;50945;44.472;-123.352;2022-09-24T00:18:59;100668.84;;;23.14;45.84
64551;BME280;50945;44.472;-123.352;2022-09-24T00:21:36;100676.59;;;23.07;44.39
64551;BME280;50945;44.472;-123.352;2022-09-24T00:24:06;100673.97;;;23.00;45.66
64551;BME280;50945;44.472;-123.352;2022-09-24T00:26:32;100672.81;;;22.96;45.74
64551;BME280;50945;44.472;-123.352;2022-09-24T00:29:17;100680.00;;;22.92;45.67
64551;BME280;50945;44.472;-123.352;2022-09-24T00:31:45;100675.78;;;22.89;45.45
64551;BME280;50945;44.472;-123.352;2022-09-24T00:34:12;100678.25;;;22.86;45.45
64551;BME280;50945;44.472;-123.352;2022-09-24T00:36:38;100683.50;;;22.82;45.35
64551;BME280;50945;44.472;-123.352;2022-09-24T00:39:05;100674.53;;;22.80;45.26
64551;BME280;50945;44.472;-123.352;2022-09-24T00:41:35;100675.06;;;22.77;45.18
64551;BME280;50945;44.472;-123.352;2022-09-24T00:47:37;100672.66;;;22.64;42.83
64551;BME280;50945;44.472;-123.352;2022-09-24T00:50:12;100677.91;;;22.60;45.41
64551;BME280;50945;44.472;-123.352;2022-09-24T00:53:07;100680.63;;;22.55;45.33
64551;BME280;50945;44.472;-123.352;2022-09-24T00:55:30;100674.72;;;22.51;45.56
64551;BME280;50945;44.472;-123.352;2022-09-24T00:58:02;100676.31;;;22.47;45.61
64551;BME280;50945;44.472;-123.352;2022-09-24T01:00:29;100680.72;;;22.43;45.80
64551;BME280;50945;44.472;-123.352;2022-09-24T01:03:01;100672.53;;;22.36;45.70
64551;BME280;50945;44.472;-123.352;2022-09-24T01:05:30;100680.81;;;22.31;45.94
64551;BME280;50945;44.472;-123.352;2022-09-24T01:07:57;100680.72;;;22.26;46.01
64551;BME280;50945;44.472;-123.352;2022-09-24T01:10:49;100682.56;;;22.20;44.89
64551;BME280;50945;44.472;-123.352;2022-09-24T01:27:56;100687.00;;;21.71;44.63
64551;BME280;50945;44.472;-123.352;2022-09-24T01:30:29;100690.81;;;21.64;46.33
64551;BME280;50945;44.472;-123.352;2022-09-24T01:33:01;100682.38;;;21.59;46.29
64551;BME280;50945;44.472;-123.352;2022-09-24T01:35:33;100695.84;;;21.51;46.42
64551;BME280;50945;44.472;-123.352;2022-09-24T01:38:08;100691.50;;;21.43;46.45
64551;BME280;50945;44.472;-123.352;2022-09-24T01:40:36;100692.72;;;21.35;46.67
64551;BME280;50945;44.472;-123.352;2022-09-24T01:43:05;100692.31;;;21.26;46.87
64551;BME280;50945;44.472;-123.352;2022-09-24T01:45:34;100697.13;;;21.19;46.79
64551;BME280;50945;44.472;-123.352;2022-09-24T01:48:04;100692.81;;;21.12;47.20
64551;BME280;50945;44.472;-123.352;2022-09-24T01:50:44;100694.06;;;21.04;47.03
64551;BME280;50945;44.472;-123.352;2022-09-24T01:53:28;100696.63;;;20.94;46.96
64551;BME280;50945;44.472;-123.352;2022-09-24T01:56:18;100699.66;;;20.80;46.60
64551;BME280;50945;44.472;-123.352;2022-09-24T02:04:27;100694.22;;;20.50;48.05
64551;BME280;50945;44.472;-123.352;2022-09-24T02:07:12;100701.84;;;20.31;48.47
64551;BME280;50945;44.472;-123.352;2022-09-24T02:09:41;100703.28;;;20.10;47.74
64551;BME280;50945;44.472;-123.352;2022-09-24T02:12:14;100705.31;;;20.03;48.71
64551;BME280;50945;44.472;-123.352;2022-09-24T02:15:22;100705.75;;;19.88;49.02
64551;BME280;50945;44.472;-123.352;2022-09-24T02:17:54;100714.16;;;19.69;49.77
64551;BME280;50945;44.472;-123.352;2022-09-24T02:20:22;100709.97;;;19.48;50.13
64551;BME280;50945;44.472;-123.352;2022-09-24T02:22:53;100714.25;;;19.32;50.35
64551;BME280;50945;44.472;-123.352;2022-09-24T02:25:34;100722.53;;;19.21;50.67
64551;BME280;50945;44.472;-123.352;2022-09-24T02:28:03;100722.06;;;19.05;50.87
64551;BME280;50945;44.472;-123.352;2022-09-24T02:30:38;100718.38;;;18.93;50.75
64551;BME280;50945;44.472;-123.352;2022-09-24T02:33:08;100723.97;;;18.86;50.76
64551;BME280;50945;44.472;-123.352;2022-09-24T02:35:55;100729.75;;;18.85;51.16
64551;BME280;50945;44.472;-123.352;2022-09-24T02:38:22;100729.75;;;18.85;51.42
64551;BME280;50945;44.472;-123.352;2022-09-24T02:40:50;100730.63;;;18.85;51.44
64551;BME280;50945;44.472;-123.352;2022-09-24T02:43:18;100736.16;;;18.85;51.64
64551;BME280;50945;44.472;-123.352;2022-09-24T02:45:44;100738.97;;;18.78;52.46
64551;BME280;50945;44.472;-123.352;2022-09-24T02:48:10;100741.13;;;18.76;51.88
64551;BME280;50945;44.472;-123.352;2022-09-24T02:50:36;100746.28;;;18.73;52.14
64551;BME280;50945;44.472;-123.352;2022-09-24T02:53:02;100741.63;;;18.67;52.30
64551;BME280;50945;44.472;-123.352;2022-09-24T02:55:29;100751.09;;;18.59;52.53
64551;BME280;50945;44.472;-123.352;2022-09-24T02:57:55;100748.81;;;18.49;52.74
64551;BME280;50945;44.472;-123.352;2022-09-24T03:00:21;100754.28;;;18.37;53.06
64551;BME280;50945;44.472;-123.352;2022-09-24T03:02:48;100762.47;;;18.26;53.45
64551;BME280;50945;44.472;-123.352;2022-09-24T03:05:14;100766.38;;;18.18;53.64
64551;BME280;50945;44.472;-123.352;2022-09-24T03:07:44;100761.94;;;18.10;53.83
64551;BME280;50945;44.472;-123.352;2022-09-24T03:10:10;100766.47;;;18.04;54.00
64551;BME280;50945;44.472;-123.352;2022-09-24T03:12:37;100773.75;;;17.99;54.05
64551;BME280;50945;44.472;-123.352;2022-09-24T03:15:05;100778.66;;;17.97;54.01
64551;BME280;50945;44.472;-123.352;2022-09-24T03:17:31;100779.31;;;17.92;54.08
64551;BME280;50945;44.472;-123.352;2022-09-24T03:19:57;100782.31;;;17.84;55.94
64551;BME280;50945;44.472;-123.352;2022-09-24T03:22:24;100782.53;;;17.82;54.41
64551;BME280;50945;44.472;-123.352;2022-09-24T03:24:50;100789.81;;;17.77;54.88
64551;BME280;50945;44.472;-123.352;2022-09-24T03:27:16;100789.41;;;17.73;54.74
64551;BME280;50945;44.472;-123.352;2022-09-24T03:29:42;100796.66;;;17.67;55.24
64551;BME280;50945;44.472;-123.352;2022-09-24T03:32:28;100798.38;;;17.62;55.22
64551;BME280;50945;44.472;-123.352;2022-09-24T03:34:59;100794.59;;;17.56;55.28
64551;BME280;50945;44.472;-123.352;2022-09-24T03:37:26;100802.69;;;17.51;55.50
64551;BME280;50945;44.472;-123.352;2022-09-24T03:39:52;100795.50;;;17.43;55.95
64551;BME280;50945;44.472;-123.352;2022-09-24T03:42:18;100799.13;;;17.37;55.60
64551;BME280;50945;44.472;-123.352;2022-09-24T03:44:45;100795.97;;;17.34;56.13
64551;BME280;50945;44.472;-123.352;2022-09-24T03:47:11;100796.63;;;17.29;56.11
64551;BME280;50945;44.472;-123.352;2022-09-24T03:49:38;100796.44;;;17.24;56.44
64551;BME280;50945;44.472;-123.352;2022-09-24T03:52:04;100798.16;;;17.18;56.21
64551;BME280;50945;44.472;-123.352;2022-09-24T03:54:30;100798.41;;;17.10;56.14
64551;BME280;50945;44.472;-123.352;2022-09-24T03:56:57;100809.44;;;17.03;56.82
64551;BME280;50945;44.472;-123.352;2022-09-24T03:59:23;100807.97;;;17.01;56.28
64551;BME280;50945;44.472;-123.352;2022-09-24T04:01:50;100808.84;;;16.95;56.67
64551;BME280;50945;44.472;-123.352;2022-09-24T04:04:16;100809.28;;;16.91;57.17
64551;BME280;50945;44.472;-123.352;2022-09-24T04:06:42;100811.63;;;16.88;57.15
64551;BME280;50945;44.472;-123.352;2022-09-24T04:09:09;100813.97;;;16.84;57.17
64551;BME280;50945;44.472;-123.352;2022-09-24T04:11:36;100817.97;;;16.82;57.32
64551;BME280;50945;44.472;-123.352;2022-09-24T04:14:02;100816.28;;;16.81;57.09
64551;BME280;50945;44.472;-123.352;2022-09-24T04:16:28;100821.19;;;16.72;59.00
64551;BME280;50945;44.472;-123.352;2022-09-24T04:18:55;100816.50;;;16.66;57.21
64551;BME280;50945;44.472;-123.352;2022-09-24T04:21:21;100825.22;;;16.56;59.25
64551;BME280;50945;44.472;-123.352;2022-09-24T04:23:47;100825.63;;;16.53;57.50
64551;BME280;50945;44.472;-123.352;2022-09-24T04:26:14;100837.09;;;16.50;57.78
64551;BME280;50945;44.472;-123.352;2022-09-24T04:28:41;100826.91;;;16.44;57.62
64551;BME280;50945;44.472;-123.352;2022-09-24T04:31:08;100823.75;;;16.40;57.79
64551;BME280;50945;44.472;-123.352;2022-09-24T04:33:34;100836.03;;;16.31;59.74
64551;BME280;50945;44.472;-123.352;2022-09-24T04:36:00;100838.38;;;16.27;58.13
64551;BME280;50945;44.472;-123.352;2022-09-24T04:38:26;100841.13;;;16.21;58.65
64551;BME280;50945;44.472;-123.352;2022-09-24T04:40:53;100833.66;;;16.14;58.18
64551;BME280;50945;44.472;-123.352;2022-09-24T04:43:21;100834.53;;;16.08;58.94
64551;BME280;50945;44.472;-123.352;2022-09-24T04:45:48;100834.50;;;16.02;58.86
64551;BME280;50945;44.472;-123.352;2022-09-24T04:48:14;100840.63;;;15.97;59.35
64551;BME280;50945;44.472;-123.352;2022-09-24T04:50:42;100840.00;;;15.95;59.16
64551;BME280;50945;44.472;-123.352;2022-09-24T04:53:09;100840.84;;;15.89;59.27
64551;BME280;50945;44.472;-123.352;2022-09-24T04:55:36;100842.09;;;15.86;59.33
64551;BME280;50945;44.472;-123.352;2022-09-24T04:58:04;100845.72;;;15.87;59.70
64551;BME280;50945;44.472;-123.352;2022-09-24T05:00:30;100844.66;;;15.88;59.35
64551;BME280;50945;44.472;-123.352;2022-09-24T05:02:59;100846.78;;;15.86;59.54
64551;BME280;50945;44.472;-123.352;2022-09-24T05:05:28;100841.66;;;15.83;59.26
64551;BME280;50945;44.472;-123.352;2022-09-24T05:07:55;100844.22;;;15.77;59.59
64551;BME280;50945;44.472;-123.352;2022-09-24T05:10:25;100848.59;;;15.72;59.68
64551;BME280;50945;44.472;-123.352;2022-09-24T05:12:51;100844.13;;;15.64;59.71
64551;BME280;50945;44.472;-123.352;2022-09-24T05:15:18;100852.16;;;15.59;59.72
64551;BME280;50945;44.472;-123.352;2022-09-24T05:17:44;100845.78;;;15.52;62.41
64551;BME280;50945;44.472;-123.352;2022-09-24T05:20:11;100847.69;;;15.51;60.25
64551;BME280;50945;44.472;-123.352;2022-09-24T05:22:42;100844.06;;;15.51;59.96
64551;BME280;50945;44.472;-123.352;2022-09-24T05:25:10;100846.19;;;15.49;60.05
64551;BME280;50945;44.472;-123.352;2022-09-24T05:27:36;100852.75;;;15.48;59.77
64551;BME280;50945;44.472;-123.352;2022-09-24T05:30:03;100854.19;;;15.44;62.67
64551;BME280;50945;44.472;-123.352;2022-09-24T05:32:31;100857.59;;;15.39;60.26
64551;BME280;50945;44.472;-123.352;2022-09-24T05:34:58;100858.81;;;15.36;60.27
64551;BME280;50945;44.472;-123.352;2022-09-24T05:37:25;100855.63;;;15.33;59.95
64551;BME280;50945;44.472;-123.352;2022-09-24T05:39:54;100861.97;;;15.27;60.75
64551;BME280;50945;44.472;-123.352;2022-09-24T05:42:22;100862.75;;;15.20;60.81
64551;BME280;50945;44.472;-123.352;2022-09-24T05:44:48;100869.09;;;15.14;60.37
64551;BME280;50945;44.472;-123.352;2022-09-24T05:47:15;100864.88;;;15.12;60.50
64551;BME280;50945;44.472;-123.352;2022-09-24T05:49:42;100865.91;;;15.11;60.75
64551;BME280;50945;44.472;-123.352;2022-09-24T05:52:09;100873.75;;;15.14;60.88
64551;BME280;50945;44.472;-123.352;2022-09-24T05:54:35;100873.56;;;15.15;60.95
64551;BME280;50945;44.472;-123.352;2022-09-24T05:57:01;100871.84;;;15.14;61.06
64551;BME280;50945;44.472;-123.352;2022-09-24T05:59:28;100869.31;;;15.13;60.80
64551;BME280;50945;44.472;-123.352;2022-09-24T06:01:54;100871.22;;;15.12;61.45
64551;BME280;50945;44.472;-123.352;2022-09-24T06:04:21;100879.22;;;15.07;61.42
64551;BME280;50945;44.472;-123.352;2022-09-24T06:06:47;100883.44;;;15.03;61.02
64551;BME280;50945;44.472;-123.352;2022-09-24T06:09:15;100874.94;;;14.98;61.31
64551;BME280;50945;44.472;-123.352;2022-09-24T06:11:41;100877.88;;;14.96;61.93
64551;BME280;50945;44.472;-123.352;2022-09-24T06:14:08;100879.13;;;14.94;61.40
64551;BME280;50945;44.472;-123.352;2022-09-24T06:16:34;100877.63;;;14.91;61.43
64551;BME280;50945;44.472;-123.352;2022-09-24T06:19:00;100873.59;;;14.87;63.43
64551;BME280;50945;44.472;-123.352;2022-09-24T06:21:27;100876.72;;;14.84;61.37
64551;BME280;50945;44.472;-123.352;2022-09-24T06:23:53;100887.28;;;14.80;61.42
64551;BME280;50945;44.472;-123.352;2022-09-24T06:26:19;100883.69;;;14.80;61.62
64551;BME280;50945;44.472;-123.352;2022-09-24T06:28:46;100885.78;;;14.78;61.72
64551;BME280;50945;44.472;-123.352;2022-09-24T06:31:12;100888.94;;;14.75;61.56
64551;BME280;50945;44.472;-123.352;2022-09-24T06:33:39;100881.28;;;14.70;64.04
64551;BME280;50945;44.472;-123.352;2022-09-24T06:36:05;100893.34;;;14.69;61.37
64551;BME280;50945;44.472;-123.352;2022-09-24T06:38:31;100882.09;;;14.64;64.61
64551;BME280;50945;44.472;-123.352;2022-09-24T06:41:00;100874.59;;;14.58;61.83
64551;BME280;50945;44.472;-123.352;2022-09-24T06:43:26;100879.81;;;14.53;62.10
64551;BME280;50945;44.472;-123.352;2022-09-24T06:45:57;100884.22;;;14.47;62.35
64551;BME280;50945;44.472;-123.352;2022-09-24T06:48:23;100882.47;;;14.39;62.17
64551;BME280;50945;44.472;-123.352;2022-09-24T06:50:51;100879.44;;;14.34;62.70
64551;BME280;50945;44.472;-123.352;2022-09-24T06:53:18;100889.59;;;14.34;62.33
64551;BME280;50945;44.472;-123.352;2022-09-24T06:55:44;100886.00;;;14.33;62.19
64551;BME280;50945;44.472;-123.352;2022-09-24T06:58:13;100885.53;;;14.30;62.58
64551;BME280;50945;44.472;-123.352;2022-09-24T07:00:40;100874.06;;;14.26;62.52
64551;BME280;50945;44.472;-123.352;2022-09-24T07:03:16;100883.38;;;14.25;63.12
64551;BME280;50945;44.472;-123.352;2022-09-24T07:05:43;100896.69;;;14.21;62.60
64551;BME280;50945;44.472;-123.352;2022-09-24T07:08:09;100889.84;;;14.17;66.30
64551;BME280;50945;44.472;-123.352;2022-09-24T07:10:35;100894.50;;;14.17;62.70
64551;BME280;50945;44.472;-123.352;2022-09-24T07:13:02;100890.03;;;14.16;62.74
64551;BME280;50945;44.472;-123.352;2022-09-24T07:15:29;100892.13;;;14.14;62.89
64551;BME280;50945;44.472;-123.352;2022-09-24T07:17:55;100890.19;;;14.07;62.95
64551;BME280;50945;44.472;-123.352;2022-09-24T07:20:23;100889.72;;;14.04;63.28
64551;BME280;50945;44.472;-123.352;2022-09-24T07:22:49;100888.59;;;13.98;63.12
64551;BME280;50945;44.472;-123.352;2022-09-24T07:25:16;100880.75;;;13.95;63.34
64551;BME280;50945;44.472;-123.352;2022-09-24T07:27:42;100890.91;;;13.95;63.46
64551;BME280;50945;44.472;-123.352;2022-09-24T07:30:09;100890.22;;;13.93;63.57
64551;BME280;50945;44.472;-123.352;2022-09-24T07:32:35;100888.53;;;13.92;63.65
64551;BME280;50945;44.472;-123.352;2022-09-24T07:35:02;100896.75;;;13.92;63.29
64551;BME280;50945;44.472;-123.352;2022-09-24T07:37:29;100884.72;;;13.93;63.35
64551;BME280;50945;44.472;-123.352;2022-09-24T07:39:58;100883.50;;;13.95;63.82
64551;BME280;50945;44.472;-123.352;2022-09-24T07:42:24;100886.88;;;13.97;63.89
64551;BME280;50945;44.472;-123.352;2022-09-24T07:44:51;100889.25;;;14.00;63.78
64551;BME280;50945;44.472;-123.352;2022-09-24T07:47:17;100885.91;;;14.05;63.75
64551;BME280;50945;44.472;-123.352;2022-09-24T07:49:44;100881.75;;;14.09;62.92
64551;BME280;50945;44.472;-123.352;2022-09-24T07:52:10;100891.28;;;14.13;63.23
64551;BME280;50945;44.472;-123.352;2022-09-24T07:54:37;100880.28;;;14.13;63.68
64551;BME280;50945;44.472;-123.352;2022-09-24T07:57:09;100883.88;;;14.14;63.64
64551;BME280;50945;44.472;-123.352;2022-09-24T07:59:39;100892.78;;;14.16;63.58
64551;BME280;50945;44.472;-123.352;2022-09-24T08:02:14;100888.16;;;14.16;64.05
64551;BME280;50945;44.472;-123.352;2022-09-24T08:04:42;100884.75;;;14.14;63.55
64551;BME280;50945;44.472;-123.352;2022-09-24T08:07:10;100890.03;;;14.16;63.51
64551;BME280;50945;44.472;-123.352;2022-09-24T08:09:37;100890.25;;;14.14;63.71
64551;BME280;50945;44.472;-123.352;2022-09-24T08:12:03;100888.34;;;14.15;63.74
64551;BME280;50945;44.472;-123.352;2022-09-24T08:14:30;100891.28;;;14.13;63.88
64551;BME280;50945;44.472;-123.352;2022-09-24T08:16:57;100887.91;;;14.11;64.05
64551;BME280;50945;44.472;-123.352;2022-09-24T08:19:24;100892.56;;;14.11;63.84
64551;BME280;50945;44.472;-123.352;2022-09-24T08:21:52;100903.53;;;14.11;64.01
64551;BME280;50945;44.472;-123.352;2022-09-24T08:24:19;100894.44;;;14.10;64.27
64551;BME280;50945;44.472;-123.352;2022-09-24T08:26:45;100900.78;;;14.11;64.41
64551;BME280;50945;44.472;-123.352;2022-09-24T08:29:11;100901.00;;;14.09;64.45
64551;BME280;50945;44.472;-123.352;2022-09-24T08:31:38;100902.41;;;14.05;64.21
64551;BME280;50945;44.472;-123.352;2022-09-24T08:34:06;100900.06;;;14.02;64.64
64551;BME280;50945;44.472;-123.352;2022-09-24T08:36:33;100904.63;;;13.95;67.67
64551;BME280;50945;44.472;-123.352;2022-09-24T08:38:59;100904.53;;;13.88;64.54
64551;BME280;50945;44.472;-123.352;2022-09-24T08:41:51;100908.75;;;13.84;65.75
64551;BME280;50945;44.472;-123.352;2022-09-24T08:45:02;100910.16;;;13.80;65.04
64551;BME280;50945;44.472;-123.352;2022-09-24T08:50:18;100909.41;;;13.71;65.22
64551;BME280;50945;44.472;-123.352;2022-09-24T08:55:43;100918.69;;;13.70;65.58
64551;BME280;50945;44.472;-123.352;2022-09-24T08:58:25;100916.97;;;13.69;65.61
64551;BME280;50945;44.472;-123.352;2022-09-24T09:01:12;100928.16;;;13.67;65.71
64551;BME280;50945;44.472;-123.352;2022-09-24T09:06:37;100917.75;;;13.63;66.12
64551;BME280;50945;44.472;-123.352;2022-09-24T09:09:22;100924.09;;;13.63;67.48
64551;BME280;50945;44.472;-123.352;2022-09-24T09:11:56;100922.00;;;13.65;65.48
64551;BME280;50945;44.472;-123.352;2022-09-24T09:20:06;100924.75;;;13.65;65.79
64551;BME280;50945;44.472;-123.352;2022-09-24T09:22:40;100926.00;;;13.63;66.01
64551;BME280;50945;44.472;-123.352;2022-09-24T09:25:24;100927.22;;;13.60;66.07
64551;BME280;50945;44.472;-123.352;2022-09-24T09:28:14;100920.88;;;13.60;67.22
64551;BME280;50945;44.472;-123.352;2022-09-24T09:42:30;100925.53;;;13.59;67.20
64551;BME280;50945;44.472;-123.352;2022-09-24T09:45:07;100927.22;;;13.60;65.94
64551;BME280;50945;44.472;-123.352;2022-09-24T09:47:47;100933.59;;;13.61;66.06
64551;BME280;50945;44.472;-123.352;2022-09-24T09:52:46;100930.94;;;13.53;66.48
64551;BME280;50945;44.472;-123.352;2022-09-24T09:55:27;100925.16;;;13.47;67.12
64551;BME280;50945;44.472;-123.352;2022-09-24T09:58:21;100923.38;;;13.40;67.36
64551;BME280;50945;44.472;-123.352;2022-09-24T10:00:48;100928.19;;;13.38;67.00
64551;BME280;50945;44.472;-123.352;2022-09-24T10:05:54;100930.94;;;13.38;66.62
64551;BME280;50945;44.472;-123.352;2022-09-24T10:08:22;100928.38;;;13.36;66.77
64551;BME280;50945;44.472;-123.352;2022-09-24T10:10:56;100918.63;;;13.34;67.17
64551;BME280;50945;44.472;-123.352;2022-09-24T10:13:24;100923.44;;;13.31;67.06
64551;BME280;50945;44.472;-123.352;2022-09-24T10:15:55;100921.03;;;13.28;67.11
64551;BME280;50945;44.472;-123.352;2022-09-24T10:18:50;100922.28;;;13.26;68.91
64551;BME280;50945;44.472;-123.352;2022-09-24T10:21:32;100919.72;;;13.24;68.33
64551;BME280;50945;44.472;-123.352;2022-09-24T10:24:05;100926.25;;;13.23;67.69
64551;BME280;50945;44.472;-123.352;2022-09-24T10:26:38;100926.66;;;13.20;67.38
64551;BME280;50945;44.472;-123.352;2022-09-24T10:29:18;100929.75;;;13.17;67.28
64551;BME280;50945;44.472;-123.352;2022-09-24T10:32:13;100930.50;;;13.11;67.57
64551;BME280;50945;44.472;-123.352;2022-09-24T10:34:41;100924.75;;;13.06;67.90
64551;BME280;50945;44.472;-123.352;2022-09-24T10:37:15;100911.75;;;13.00;68.86
64551;BME280;50945;44.472;-123.352;2022-09-24T10:39:43;100914.03;;;12.96;68.22
64551;BME280;50945;44.472;-123.352;2022-09-24T10:42:24;100912.88;;;12.90;69.89
64551;BME280;50945;44.472;-123.352;2022-09-24T10:44:50;100919.31;;;12.83;68.66
64551;BME280;50945;44.472;-123.352;2022-09-24T10:47:51;100922.13;;;12.74;69.65
64551;BME280;50945;44.472;-123.352;2022-09-24T10:53:12;100923.59;;;12.62;71.03
64551;BME280;50945;44.472;-123.352;2022-09-24T10:58:56;100920.53;;;12.57;70.80
64551;BME280;50945;44.472;-123.352;2022-09-24T11:20:49;100912.50;;;12.55;69.28
64551;BME280;50945;44.472;-123.352;2022-09-24T11:23:26;100917.31;;;12.53;69.31
64551;BME280;50945;44.472;-123.352;2022-09-24T11:31:40;100914.16;;;12.42;71.55
64551;BME280;50945;44.472;-123.352;2022-09-24T11:36:55;100902.78;;;12.30;70.14
64551;BME280;50945;44.472;-123.352;2022-09-24T11:52:51;100913.06;;;12.05;70.76
64551;BME280;50945;44.472;-123.352;2022-09-24T11:55:24;100916.81;;;12.04;71.09
64551;BME280;50945;44.472;-123.352;2022-09-24T11:58:26;100919.91;;;12.01;71.35
64551;BME280;50945;44.472;-123.352;2022-09-24T12:01:00;100921.50;;;11.95;71.22
64551;BME280;50945;44.472;-123.352;2022-09-24T12:06:22;100923.56;;;11.93;73.49
64551;BME280;50945;44.472;-123.352;2022-09-24T12:09:17;100918.94;;;11.93;73.22
64551;BME280;50945;44.472;-123.352;2022-09-24T12:11:52;100924.41;;;11.93;71.37
64551;BME280;50945;44.472;-123.352;2022-09-24T12:14:43;100920.66;;;11.94;73.28
64551;BME280;50945;44.472;-123.352;2022-09-24T12:17:22;100919.97;;;11.92;71.73
64551;BME280;50945;44.472;-123.352;2022-09-24T12:20:13;100916.19;;;11.93;73.43
64551;BME280;50945;44.472;-123.352;2022-09-24T12:22:44;100921.66;;;11.93;71.27
64551;BME280;50945;44.472;-123.352;2022-09-24T12:25:13;100925.28;;;11.94;71.31
64551;BME280;50945;44.472;-123.352;2022-09-24T12:27:39;100918.75;;;11.95;71.29
64551;BME280;50945;44.472;-123.352;2022-09-24T12:30:25;100926.13;;;11.94;71.52
64551;BME280;50945;44.472;-123.352;2022-09-24T12:33:22;100920.16;;;11.91;71.59
64551;BME280;50945;44.472;-123.352;2022-09-24T12:36:24;100924.25;;;11.87;72.71
64551;BME280;50945;44.472;-123.352;2022-09-24T12:38:59;100921.22;;;11.82;72.29
64551;BME280;50945;44.472;-123.352;2022-09-24T12:41:31;100927.88;;;11.79;72.09
64551;BME280;50945;44.472;-123.352;2022-09-24T12:46:54;100926.53;;;11.75;73.40
64551;BME280;50945;44.472;-123.352;2022-09-24T12:51:53;100929.09;;;11.76;72.57
64551;BME280;50945;44.472;-123.352;2022-09-24T12:57:03;100934.03;;;11.81;72.44
64551;BME280;50945;44.472;-123.352;2022-09-24T12:59:29;100930.09;;;11.84;72.38
64551;BME280;50945;44.472;-123.352;2022-09-24T13:02:16;100935.56;;;11.84;73.31
64551;BME280;50945;44.472;-123.352;2022-09-24T13:07:37;100938.41;;;11.67;73.37
64551;BME280;50945;44.472;-123.352;2022-09-24T13:10:22;100937.03;;;11.63;74.47
64551;BME280;50945;44.472;-123.352;2022-09-24T13:12:51;100934.47;;;11.61;73.34
64551;BME280;50945;44.472;-123.352;2022-09-24T13:15:36;100946.47;;;11.60;74.21
64551;BME280;50945;44.472;-123.352;2022-09-24T13:18:17;100944.06;;;11.57;72.99
64551;BME280;50945;44.472;-123.352;2022-09-24T13:20:57;100950.38;;;11.58;73.77
64551;BME280;50945;44.472;-123.352;2022-09-24T13:25:57;100953.50;;;11.55;73.40
64551;BME280;50945;44.472;-123.352;2022-09-24T13:28:26;100962.56;;;11.55;73.47
64551;BME280;50945;44.472;-123.352;2022-09-24T13:31:08;100958.09;;;11.54;73.49
64551;BME280;50945;44.472;-123.352;2022-09-24T13:33:44;100966.69;;;11.51;73.46
64551;BME280;50945;44.472;-123.352;2022-09-24T13:39:17;100966.53;;;11.45;73.63
64551;BME280;50945;44.472;-123.352;2022-09-24T13:44:41;100971.50;;;11.41;73.56
64551;BME280;50945;44.472;-123.352;2022-09-24T13:52:47;100957.31;;;11.37;74.32
64551;BME280;50945;44.472;-123.352;2022-09-24T13:55:25;100965.03;;;11.34;74.31
64551;BME280;50945;44.472;-123.352;2022-09-24T13:57:52;100961.97;;;11.29;74.07
64551;BME280;50945;44.472;-123.352;2022-09-24T14:00:22;100973.41;;;11.24;79.09
64551;BME280;50945;44.472;-123.352;2022-09-24T14:05:38;100970.84;;;11.22;73.95
64551;BME280;50945;44.472;-123.352;2022-09-24T14:08:11;100969.50;;;11.18;78.17
64551;BME280;50945;44.472;-123.352;2022-09-24T14:10:38;100971.56;;;11.16;74.13
64551;BME280;50945;44.472;-123.352;2022-09-24T14:18:33;100985.56;;;11.13;74.22
64551;BME280;50945;44.472;-123.352;2022-09-24T14:21:10;100996.34;;;11.15;74.53
64551;BME280;50945;44.472;-123.352;2022-09-24T14:26:35;100997.19;;;11.15;74.28
64551;BME280;50945;44.472;-123.352;2022-09-24T14:29:04;100990.88;;;11.15;74.08
64551;BME280;50945;44.472;-123.352;2022-09-24T14:31:40;100996.19;;;11.16;74.33
64551;BME280;50945;44.472;-123.352;2022-09-24T14:34:07;100999.44;;;11.20;74.01
64551;BME280;50945;44.472;-123.352;2022-09-24T14:36:34;101004.03;;;11.28;74.39
64551;BME280;50945;44.472;-123.352;2022-09-24T14:39:03;101001.44;;;11.34;74.12
64551;BME280;50945;44.472;-123.352;2022-09-24T14:41:32;100998.72;;;11.43;73.70
64551;BME280;50945;44.472;-123.352;2022-09-24T14:44:03;101010.84;;;11.48;73.75
64551;BME280;50945;44.472;-123.352;2022-09-24T14:46:34;101011.84;;;11.47;73.68
64551;BME280;50945;44.472;-123.352;2022-09-24T14:52:01;101020.56;;;11.51;74.03
64551;BME280;50945;44.472;-123.352;2022-09-24T14:54:39;101023.47;;;11.57;74.10
64551;BME280;50945;44.472;-123.352;2022-09-24T14:59:45;101024.47;;;11.73;73.37
64551;BME280;50945;44.472;-123.352;2022-09-24T15:02:28;101029.22;;;11.79;73.42
64551;BME280;50945;44.472;-123.352;2022-09-24T15:04:57;101029.56;;;11.84;73.37
64551;BME280;50945;44.472;-123.352;2022-09-24T15:07:29;101026.16;;;11.90;73.68